createdAt,value
2018-03-15T00:00:52.770Z,4.47
2018-03-15T00:03:27.017Z,4.50
2018-03-15T00:05:55.109Z,4.87
2018-03-15T00:08:23.056Z,4.33
2018-03-15T00:10:51.190Z,4.50
2018-03-15T00:13:20.009Z,4.60
2018-03-15T00:15:47.909Z,4.53
2018-03-15T00:18:16.669Z,4.17
2018-03-15T00:20:44.769Z,5.03
2018-03-15T00:23:12.729Z,4.57
2018-03-15T00:25:41.548Z,4.80
2018-03-15T00:28:09.363Z,4.77
2018-03-15T00:30:37.209Z,4.83
2018-03-15T00:33:05.009Z,5.00
2018-03-15T00:35:33.129Z,4.87
2018-03-15T00:38:00.829Z,5.10
2018-03-15T00:40:28.949Z,5.37
2018-03-15T00:42:57.177Z,5.50
2018-03-15T00:45:25.188Z,5.50
2018-03-15T00:47:52.989Z,5.20
2018-03-15T00:50:21.128Z,5.50
2018-03-15T00:52:48.930Z,5.63
2018-03-15T00:55:16.829Z,5.27
2018-03-15T00:57:44.649Z,5.40
2018-03-15T01:00:12.438Z,5.37
2018-03-15T01:02:41.053Z,5.50
2018-03-15T01:05:08.969Z,5.50
2018-03-15T01:07:36.809Z,5.77
2018-03-15T01:10:05.029Z,5.90
2018-03-15T01:12:33.228Z,5.40
2018-03-15T01:15:01.148Z,5.77
2018-03-15T01:17:29.249Z,6.60
2018-03-15T01:19:58.109Z,5.70
2018-03-15T01:22:28.210Z,6.00
2018-03-15T01:24:56.091Z,6.00
2018-03-15T01:27:23.928Z,6.13
2018-03-15T01:29:52.069Z,6.20
2018-03-15T01:32:19.901Z,6.43
2018-03-15T01:34:47.709Z,6.70
2018-03-15T01:37:16.389Z,7.37
2018-03-15T01:39:44.549Z,7.00
2018-03-15T01:42:13.949Z,7.33
2018-03-15T01:44:41.869Z,7.13
2018-03-15T01:47:10.409Z,7.90
2018-03-15T01:49:39.088Z,7.83
2018-03-15T01:52:06.908Z,7.40
2018-03-15T01:54:34.929Z,7.97
2018-03-15T01:57:02.908Z,7.83
2018-03-15T01:59:31.588Z,7.70
2018-03-15T02:01:59.648Z,8.07
2018-03-15T02:04:28.247Z,7.93
2018-03-15T02:06:56.268Z,7.77
2018-03-15T02:09:24.167Z,8.40
2018-03-15T02:11:52.406Z,8.53
2018-03-15T02:14:20.127Z,8.07
2018-03-15T02:16:48.067Z,8.47
2018-03-15T02:19:16.127Z,7.70
2018-03-15T02:21:44.367Z,8.13
2018-03-15T02:24:13.087Z,7.73
2018-03-15T02:26:41.171Z,7.60
2018-03-15T02:29:09.207Z,7.67
2018-03-15T02:31:37.068Z,8.13
2018-03-15T02:34:04.887Z,7.90
2018-03-15T02:36:33.027Z,8.40
2018-03-15T02:39:00.867Z,7.87
2018-03-15T02:41:28.928Z,7.70
2018-03-15T02:43:58.171Z,8.00
2018-03-15T02:46:26.129Z,8.47
2018-03-15T02:48:54.887Z,8.47
2018-03-15T02:51:22.829Z,8.23
2018-03-15T02:53:50.986Z,9.03
2018-03-15T02:56:19.166Z,7.97
2018-03-15T02:58:47.086Z,8.23
2018-03-15T03:01:14.867Z,8.97
2018-03-15T03:03:42.786Z,8.03
2018-03-15T03:06:10.626Z,8.60
2018-03-15T03:08:38.446Z,8.33
2018-03-15T03:11:06.546Z,8.70
2018-03-15T03:13:34.586Z,8.70
2018-03-15T03:16:02.826Z,9.00
2018-03-15T03:18:30.707Z,8.80
2018-03-15T03:20:58.652Z,8.60
2018-03-15T03:23:26.667Z,9.07
2018-03-15T03:25:55.367Z,10.03
2018-03-15T03:28:23.426Z,10.13
2018-03-15T03:30:52.147Z,9.53
2018-03-15T03:33:19.966Z,9.00
2018-03-15T03:35:48.206Z,8.97
2018-03-15T03:38:15.966Z,9.70
2018-03-15T03:40:43.867Z,10.13
2018-03-15T03:43:11.913Z,9.83
2018-03-15T03:45:40.108Z,10.07
2018-03-15T03:48:07.969Z,9.33
2018-03-15T03:50:36.626Z,9.23
2018-03-15T03:53:04.806Z,9.63
2018-03-15T03:55:32.786Z,10.07
2018-03-15T03:58:00.607Z,9.47
2018-03-15T04:00:29.300Z,10.63
2018-03-15T04:02:57.528Z,10.30
2018-03-15T04:05:25.487Z,9.93
2018-03-15T04:07:53.406Z,9.70
2018-03-15T04:10:21.288Z,10.47
2018-03-15T04:12:49.570Z,10.20
2018-03-15T04:15:18.126Z,10.43
2018-03-15T04:17:46.309Z,10.83
2018-03-15T04:20:14.906Z,10.30
2018-03-15T04:22:42.806Z,10.50
2018-03-15T04:25:11.050Z,10.10
2018-03-15T04:27:38.926Z,9.87
2018-03-15T04:30:06.807Z,10.10
2018-03-15T04:32:34.905Z,10.80
2018-03-15T04:35:03.007Z,9.43
2018-03-15T04:37:30.966Z,11.50
2018-03-15T04:39:58.846Z,11.40
2018-03-15T04:42:27.086Z,11.80
2018-03-15T04:44:54.966Z,12.53
2018-03-15T04:47:22.866Z,12.47
2018-03-15T04:49:51.606Z,12.33
2018-03-15T04:52:19.526Z,13.13
2018-03-15T04:54:47.488Z,12.63
2018-03-15T04:57:15.506Z,12.90
2018-03-15T04:59:43.606Z,13.47
2018-03-15T05:02:12.526Z,13.83
2018-03-15T05:04:40.407Z,13.43
2018-03-15T05:07:08.246Z,15.73
2018-03-15T05:09:35.986Z,13.97
2018-03-15T05:12:04.190Z,14.40
2018-03-15T05:14:31.986Z,16.00
2018-03-15T05:16:59.906Z,15.20
2018-03-15T05:19:27.866Z,15.80
2018-03-15T05:21:56.066Z,16.83
2018-03-15T05:24:24.306Z,16.40
2018-03-15T05:26:52.767Z,17.00
2018-03-15T05:29:21.330Z,17.60
2018-03-15T05:31:49.086Z,18.30
2018-03-15T05:34:16.886Z,18.63
2018-03-15T05:36:44.786Z,19.77
2018-03-15T05:39:13.487Z,18.13
2018-03-15T05:41:41.426Z,17.73
2018-03-15T05:44:09.509Z,16.77
2018-03-15T05:46:37.328Z,17.70
2018-03-15T05:49:05.246Z,17.17
2018-03-15T05:51:33.166Z,16.77
2018-03-15T05:54:01.026Z,18.27
2018-03-15T05:56:29.086Z,17.90
2018-03-15T05:58:57.226Z,16.87
2018-03-15T06:01:25.426Z,18.17
2018-03-15T06:03:54.206Z,16.47
2018-03-15T06:06:22.375Z,17.07
2018-03-15T06:08:50.286Z,18.20
2018-03-15T06:11:18.376Z,18.30
2018-03-15T06:13:46.128Z,16.17
2018-03-15T06:16:14.046Z,16.17
2018-03-15T06:18:42.207Z,16.83
2018-03-15T06:21:10.106Z,17.13
2018-03-15T06:23:38.087Z,15.13
2018-03-15T06:26:05.968Z,16.17
2018-03-15T06:28:34.248Z,16.80
2018-03-15T06:31:03.046Z,16.83
2018-03-15T06:33:30.946Z,16.60
2018-03-15T06:35:58.826Z,14.97
2018-03-15T06:38:26.768Z,16.83
2018-03-15T06:40:55.656Z,16.53
2018-03-15T06:43:23.713Z,17.73
2018-03-15T06:45:51.585Z,17.20
2018-03-15T06:48:19.795Z,16.83
2018-03-15T06:50:47.686Z,17.63
2018-03-15T06:53:15.489Z,15.73
2018-03-15T06:55:43.506Z,16.53
2018-03-15T06:58:11.487Z,16.73
2018-03-15T07:00:40.063Z,15.97
2018-03-15T07:03:07.986Z,17.10
2018-03-15T07:05:36.786Z,17.73
2018-03-15T07:08:04.645Z,17.43
2018-03-15T07:10:33.343Z,18.53
2018-03-15T07:13:02.167Z,17.87
2018-03-15T07:15:30.116Z,19.20
2018-03-15T07:17:58.094Z,19.13
2018-03-15T07:20:25.905Z,18.27
2018-03-15T07:22:54.046Z,18.60
2018-03-15T07:25:21.806Z,18.67
2018-03-15T07:27:49.631Z,20.37
2018-03-15T07:30:21.967Z,18.97
2018-03-15T07:32:49.967Z,19.53
2018-03-15T07:35:17.767Z,19.33
2018-03-15T07:37:45.766Z,17.83
2018-03-15T07:40:13.927Z,20.53
2018-03-15T07:42:41.852Z,19.63
2018-03-15T07:45:10.027Z,18.17
2018-03-15T07:47:37.986Z,19.20
2018-03-15T07:50:06.067Z,17.87
2018-03-15T07:52:34.168Z,19.60
2018-03-15T07:55:01.971Z,18.73
2018-03-15T07:57:29.906Z,19.83
2018-03-15T07:59:57.926Z,18.77
2018-03-15T08:02:26.206Z,19.80
2018-03-15T08:04:54.087Z,18.67
2018-03-15T08:07:22.206Z,18.27
2018-03-15T08:09:50.055Z,17.57
2018-03-15T08:12:17.987Z,17.13
2018-03-15T08:14:45.858Z,17.37
2018-03-15T08:17:13.889Z,14.17
2018-03-15T08:19:42.406Z,14.13
2018-03-15T08:22:10.202Z,13.73
2018-03-15T08:24:38.367Z,14.33
2018-03-15T08:27:06.267Z,14.20
2018-03-15T08:29:34.486Z,14.27
2018-03-15T08:32:02.340Z,12.67
2018-03-15T08:34:30.226Z,14.87
2018-03-15T08:36:58.206Z,14.07
2018-03-15T08:39:26.056Z,14.40
2018-03-15T08:41:54.226Z,13.50
2018-03-15T08:44:22.086Z,12.73
2018-03-15T08:46:49.941Z,14.13
2018-03-15T08:49:18.473Z,13.83
2018-03-15T08:51:46.435Z,14.93
2018-03-15T08:54:14.228Z,16.43
2018-03-15T08:56:42.146Z,15.00
2018-03-15T08:59:10.266Z,15.87
2018-03-15T09:01:38.306Z,15.87
2018-03-15T09:04:06.358Z,16.10
2018-03-15T09:06:34.374Z,15.03
2018-03-15T09:09:02.626Z,17.50
2018-03-15T09:11:30.408Z,15.40
2018-03-15T09:13:58.387Z,16.50
2018-03-15T09:16:26.270Z,12.83
2018-03-15T09:18:54.248Z,15.30
2018-03-15T09:21:21.994Z,16.77
2018-03-15T09:23:49.788Z,17.57
2018-03-15T09:31:12.650Z,17.00
2018-03-15T09:33:40.507Z,17.80
2018-03-15T09:36:09.134Z,16.40
2018-03-15T09:38:37.028Z,17.60
2018-03-15T09:41:05.067Z,16.85
2018-03-15T09:46:00.326Z,17.60
2018-03-15T09:48:28.194Z,17.23
2018-03-15T09:50:56.069Z,16.23
2018-03-15T09:53:24.394Z,16.30
2018-03-15T09:55:52.256Z,17.25
2018-03-15T10:10:38.569Z,16.50
2018-03-15T10:13:07.246Z,15.33
2018-03-15T10:15:35.106Z,16.50
2018-03-15T10:22:58.527Z,16.50
2018-03-15T10:25:26.716Z,16.00
2018-03-15T10:27:54.588Z,16.45
2018-03-15T10:30:23.426Z,16.85
2018-03-15T10:32:57.867Z,16.00
2018-03-15T10:35:28.425Z,15.50
2018-03-15T10:37:56.557Z,16.10
2018-03-15T10:40:24.507Z,14.95
2018-03-15T10:52:43.726Z,15.50
2018-03-15T10:55:11.698Z,15.90
2018-03-15T10:57:39.586Z,16.00
2018-03-15T11:00:07.333Z,15.80
2018-03-15T11:02:40.886Z,15.83
2018-03-15T11:05:14.527Z,15.47
2018-03-15T11:17:32.766Z,16.43
2018-03-15T11:20:00.874Z,15.27
2018-03-15T11:22:28.726Z,14.73
2018-03-15T11:24:56.887Z,15.75
2018-03-15T11:37:16.126Z,15.95
2018-03-15T11:39:43.966Z,14.10
2018-03-15T11:42:11.806Z,15.17
2018-03-15T11:44:39.806Z,14.67
2018-03-15T11:47:07.687Z,14.40
2018-03-15T11:49:35.608Z,14.25
2018-03-15T11:52:03.766Z,14.63
2018-03-15T11:54:31.567Z,15.87
2018-03-15T11:56:59.546Z,14.03
2018-03-15T11:59:27.327Z,15.23
2018-03-15T12:01:55.486Z,15.83
2018-03-15T12:04:24.930Z,15.63
2018-03-15T12:06:53.306Z,15.53
2018-03-15T12:09:23.086Z,15.97
2018-03-15T12:11:50.966Z,16.93
2018-03-15T12:14:19.186Z,16.20
2018-03-15T12:16:47.047Z,17.57
2018-03-15T12:19:14.849Z,16.73
2018-03-15T12:21:42.786Z,18.37
2018-03-15T12:24:10.754Z,16.93
2018-03-15T12:26:38.809Z,17.20
2018-03-15T12:29:06.767Z,16.60
2018-03-15T12:31:35.371Z,16.43
2018-03-15T12:34:03.527Z,17.00
2018-03-15T12:36:31.369Z,16.83
2018-03-15T12:39:00.207Z,17.00
2018-03-15T12:41:28.046Z,16.33
2018-03-15T12:43:55.986Z,16.77
2018-03-15T12:46:23.847Z,18.23
2018-03-15T12:48:51.806Z,16.17
2018-03-15T12:51:19.646Z,16.00
2018-03-15T12:53:48.306Z,16.50
2018-03-15T12:56:16.170Z,16.70
2018-03-15T12:58:44.189Z,16.37
2018-03-15T13:01:12.007Z,17.27
2018-03-15T13:03:39.826Z,16.47
2018-03-15T13:06:07.968Z,16.10
2018-03-15T13:08:36.006Z,16.10
2018-03-15T13:11:03.967Z,16.17
2018-03-15T13:20:55.358Z,17.07
2018-03-15T13:23:23.194Z,16.70
2018-03-15T13:25:51.327Z,17.17
2018-03-15T13:30:48.025Z,17.80
2018-03-15T13:33:15.869Z,16.80
2018-03-15T13:35:43.725Z,16.80
2018-03-15T13:43:06.660Z,16.33
2018-03-15T13:45:34.407Z,16.90
2018-03-15T13:48:02.148Z,15.87
2018-03-15T13:50:30.173Z,16.83
2018-03-15T13:52:58.210Z,16.90
2018-03-15T13:57:54.012Z,16.65
2018-03-15T14:00:24.893Z,16.50
2018-03-15T14:02:52.628Z,17.20
2018-03-15T14:05:20.391Z,15.80
2018-03-15T14:07:48.879Z,17.13
2018-03-15T14:10:16.651Z,16.70
2018-03-15T14:12:44.391Z,15.55
2018-03-15T14:20:07.371Z,15.93
2018-03-15T14:22:35.873Z,15.50
2018-03-15T14:25:03.593Z,16.55
2018-03-15T14:27:31.394Z,15.30
2018-03-15T14:29:59.159Z,16.30
2018-03-15T14:44:43.891Z,15.70
2018-03-15T14:57:01.646Z,15.47
2018-03-15T14:59:29.346Z,14.77
2018-03-15T15:01:57.114Z,15.07
2018-03-15T15:04:25.582Z,15.60
2018-03-15T15:06:53.277Z,16.23
2018-03-15T15:09:21.033Z,16.40
2018-03-15T15:11:48.774Z,15.05
2018-03-15T15:14:16.506Z,15.75
2018-03-15T15:16:44.281Z,15.93
2018-03-15T15:19:11.983Z,16.83
2018-03-15T15:21:39.646Z,16.13
2018-03-15T15:24:07.740Z,15.60
2018-03-15T15:26:35.496Z,16.00
2018-03-15T15:29:03.265Z,17.53
2018-03-15T15:31:31.006Z,16.10
2018-03-15T15:33:58.757Z,17.57
2018-03-15T15:36:27.247Z,16.57
2018-03-15T15:38:54.987Z,15.70
2018-03-15T15:41:22.806Z,17.00
2018-03-15T15:43:50.566Z,17.20
2018-03-15T15:46:18.288Z,17.70
2018-03-15T15:48:46.066Z,17.90
2018-03-15T15:51:14.627Z,17.10
2018-03-15T15:53:42.388Z,17.37
2018-03-15T15:56:10.166Z,16.03
2018-03-15T15:58:37.972Z,17.10
2018-03-15T16:01:05.691Z,16.60
2018-03-15T16:03:33.468Z,17.20
2018-03-15T16:06:01.267Z,16.60
2018-03-15T16:08:29.770Z,16.77
2018-03-15T16:10:58.327Z,17.20
2018-03-15T16:13:26.927Z,16.70
2018-03-15T16:15:54.679Z,16.20
2018-03-15T16:18:22.688Z,16.43
2018-03-15T16:20:50.847Z,15.93
2018-03-15T16:23:18.767Z,16.87
2018-03-15T16:25:46.546Z,17.13
2018-03-15T16:28:14.452Z,17.03
2018-03-15T16:30:42.527Z,16.10
2018-03-15T16:33:10.367Z,15.67
2018-03-15T16:35:38.246Z,17.73
2018-03-15T16:38:06.067Z,16.90
2018-03-15T16:40:33.926Z,17.63
2018-03-15T16:43:02.023Z,17.13
2018-03-15T16:45:29.908Z,18.17
2018-03-15T16:50:30.286Z,13.63
2018-03-15T16:52:58.407Z,16.80
2018-03-15T16:55:26.468Z,16.10
2018-03-15T16:57:54.446Z,16.63
2018-03-15T17:00:23.032Z,14.40
2018-03-15T17:02:51.567Z,13.83
2018-03-15T17:05:19.487Z,14.07
2018-03-15T17:07:47.467Z,13.90
2018-03-15T17:10:15.268Z,14.03
2018-03-15T17:12:43.159Z,13.90
2018-03-15T17:22:35.147Z,13.00
2018-03-15T17:25:02.892Z,13.80
2018-03-15T17:27:30.947Z,13.30
2018-03-15T17:29:58.827Z,14.63
2018-03-15T17:32:26.650Z,13.47
2018-03-15T17:34:55.268Z,13.80
2018-03-15T17:37:23.486Z,15.45
2018-03-15T17:39:51.467Z,14.20
2018-03-15T17:42:19.369Z,15.90
2018-03-15T17:44:47.288Z,16.20
2018-03-15T17:47:15.087Z,16.00
2018-03-15T17:52:11.508Z,17.60
2018-03-15T18:16:50.707Z,17.30
2018-03-15T18:19:18.686Z,15.35
2018-03-15T18:21:48.353Z,16.10
2018-03-15T18:24:16.288Z,15.70
2018-03-15T18:26:44.187Z,12.63
2018-03-15T18:29:12.143Z,12.67
2018-03-15T18:31:40.626Z,12.73
2018-03-15T18:34:08.441Z,10.53
2018-03-15T18:36:37.086Z,8.03
2018-03-15T18:39:05.046Z,7.37
2018-03-15T18:41:33.087Z,7.10
2018-03-15T18:44:01.687Z,6.10
2018-03-15T18:46:29.587Z,5.27
2018-03-15T18:48:57.466Z,4.90
2018-03-15T18:51:25.446Z,3.90
2018-03-15T18:53:53.567Z,3.97
2018-03-15T18:56:21.408Z,3.43
2018-03-15T18:58:49.446Z,3.47
2018-03-15T19:01:17.520Z,4.73
2018-03-15T19:03:45.447Z,3.47
2018-03-15T19:06:13.408Z,3.70
2018-03-15T19:08:41.647Z,4.00
2018-03-15T19:11:09.729Z,4.10
2018-03-15T19:13:37.686Z,5.93
2018-03-15T19:16:06.467Z,9.60
2018-03-15T19:18:34.328Z,8.23
2018-03-15T19:21:02.167Z,5.75
2018-03-15T19:23:30.888Z,5.13
2018-03-15T19:25:58.707Z,6.03
2018-03-15T19:28:26.532Z,5.90
2018-03-15T19:30:54.481Z,5.23
2018-03-15T19:33:23.847Z,4.67
2018-03-15T19:35:53.247Z,4.60
2018-03-15T19:38:21.126Z,4.40
2018-03-15T19:40:48.954Z,5.10
2018-03-15T19:43:17.046Z,4.40
2018-03-15T19:45:45.793Z,5.23
2018-03-15T19:48:13.745Z,4.80
2018-03-15T19:50:41.566Z,4.90
2018-03-15T19:53:09.727Z,5.90
2018-03-15T19:55:37.567Z,4.57
2018-03-15T19:58:05.746Z,3.63
2018-03-15T20:00:33.850Z,4.00
2018-03-15T20:03:02.688Z,4.53
2018-03-15T20:05:31.927Z,4.60
2018-03-15T20:08:00.209Z,4.83
2018-03-15T20:10:28.172Z,5.67
2018-03-15T20:12:56.510Z,4.70
2018-03-15T20:15:24.455Z,4.17
2018-03-15T20:17:52.547Z,3.07
2018-03-15T20:20:20.876Z,3.30
2018-03-15T20:22:54.307Z,3.10
2018-03-15T20:25:23.171Z,3.70
2018-03-15T20:27:57.728Z,4.20
2018-03-15T20:30:25.971Z,4.10
2018-03-15T20:32:59.488Z,4.13
2018-03-15T20:35:27.648Z,4.50
2018-03-15T20:37:56.768Z,5.10
2018-03-15T20:40:30.074Z,4.30
2018-03-15T20:42:58.229Z,4.40
2018-03-15T20:45:31.636Z,4.50
2018-03-15T20:48:05.989Z,3.73
2018-03-15T20:50:33.830Z,3.73
2018-03-15T20:53:01.727Z,3.50
2018-03-15T20:55:29.626Z,3.90
2018-03-15T20:57:57.549Z,3.70
2018-03-15T21:00:25.267Z,3.47
2018-03-15T21:02:53.086Z,3.65
2018-03-15T21:05:21.026Z,3.87
2018-03-15T21:07:49.069Z,3.80
2018-03-15T21:10:16.907Z,3.63
2018-03-15T21:12:44.768Z,3.90
2018-03-15T21:15:12.967Z,3.90
2018-03-15T21:17:41.653Z,5.13
2018-03-15T21:20:09.868Z,4.77
2018-03-15T21:22:38.427Z,5.45
2018-03-15T21:25:06.468Z,5.10
2018-03-15T21:27:34.588Z,7.37
2018-03-15T21:30:02.469Z,6.30
2018-03-15T21:32:30.326Z,4.23
2018-03-15T21:34:58.767Z,5.53
2018-03-15T21:37:26.587Z,6.30
2018-03-15T21:39:54.486Z,9.63
2018-03-15T21:42:22.637Z,7.60
2018-03-15T21:44:50.508Z,7.50
2018-03-15T21:47:19.108Z,6.73
2018-03-15T21:49:48.731Z,5.27
2018-03-15T21:52:17.369Z,5.10
2018-03-15T21:54:45.306Z,5.13
2018-03-15T21:57:13.968Z,4.83
2018-03-15T21:59:41.850Z,4.30
2018-03-15T22:02:09.707Z,6.07
2018-03-15T22:04:38.115Z,5.90
2018-03-15T22:07:05.928Z,4.20
2018-03-15T22:09:33.789Z,4.07
2018-03-15T22:12:01.568Z,4.10
2018-03-15T22:14:29.450Z,4.40
2018-03-15T22:16:57.467Z,3.90
2018-03-15T22:19:25.387Z,4.03
2018-03-15T22:21:53.171Z,3.87
2018-03-15T22:24:21.029Z,3.80
2018-03-15T22:26:48.886Z,3.67
2018-03-15T22:29:16.846Z,3.80
2018-03-15T22:31:44.708Z,3.80
2018-03-15T22:34:12.772Z,4.07
2018-03-15T22:36:40.647Z,4.27
2018-03-15T22:39:08.835Z,4.43
2018-03-15T22:41:37.568Z,4.33
2018-03-15T22:44:05.666Z,4.47
2018-03-15T22:46:33.666Z,4.13
2018-03-15T22:49:01.507Z,3.87
2018-03-15T22:51:30.069Z,3.97
2018-03-15T22:53:57.827Z,3.70
2018-03-15T22:56:25.826Z,4.70
2018-03-15T22:58:53.635Z,3.60
2018-03-15T23:01:21.870Z,4.33
2018-03-15T23:03:50.071Z,3.50
2018-03-15T23:06:17.872Z,4.27
2018-03-15T23:08:45.730Z,3.70
2018-03-15T23:11:13.569Z,3.73
2018-03-15T23:13:41.714Z,3.60
2018-03-15T23:16:09.691Z,3.80
2018-03-15T23:18:38.993Z,3.30
2018-03-15T23:21:07.111Z,3.87
2018-03-15T23:23:35.650Z,3.20
2018-03-15T23:26:04.123Z,3.20
2018-03-15T23:28:31.971Z,3.90
2018-03-15T23:30:59.850Z,3.57
2018-03-15T23:33:27.698Z,3.67
2018-03-15T23:35:55.908Z,3.13
2018-03-15T23:38:23.747Z,3.20
2018-03-15T23:40:52.412Z,2.70
2018-03-15T23:43:20.567Z,3.37
2018-03-15T23:45:48.588Z,3.40
2018-03-15T23:48:16.598Z,3.00
2018-03-15T23:50:45.246Z,2.97
2018-03-15T23:53:13.046Z,2.53
2018-03-15T23:55:41.068Z,2.93
2018-03-15T23:58:09.906Z,2.97
